Time;durP1;ratioP1;P1;durP2;ratioP2;P2;SDS_P1;SDS_P2;PMS_P1;PMS_P2;Temp;Humidity;BMP_temperature;BMP_pressure;BME280_temperature;BME280_humidity;BME280_pressure;Samples;Min_cycle;Max_cycle;Signal;HPM_P1;HPM_P2
2022/05/07 00:01:44;;;;;;;;;;;;;;;17.35;68.36;101506.94;4410852;32;20126;-68
2022/05/07 00:04:10;;;;;;;;;;;;;;;17.33;68.13;101507.41;4398965;32;20296;-68
2022/05/07 00:06:35;;;;;;;;;;;;;;;17.33;68.09;101506.59;4415507;32;19997;-68
2022/05/07 00:09:00;;;;;;;;;;;;;;;17.33;67.53;101500.91;4415366;32;19989;-68
2022/05/07 00:11:26;;;;;;;;;;;;;;;17.70;66.77;101509.16;4413614;32;20034;-68
2022/05/07 00:13:52;;;;;;;;;;;;;;;17.73;66.14;101516.78;4412817;32;20263;-68
2022/05/07 00:19:03;;;;;;;;;;;;;;;17.71;64.86;101510.75;4414402;32;20046;-68
2022/05/07 00:21:29;;;;;;;;;;;;;;;17.64;65.16;101513.88;4413512;32;20002;-68
2022/05/07 00:23:55;;;;;;;;;;;;;;;17.58;66.13;101507.22;4415184;32;20395;-68
2022/05/07 00:26:20;;;;;;;;;;;;;;;17.19;67.05;101507.97;4412973;32;19984;-68
2022/05/07 00:28:46;;;;;;;;;;;;;;;17.12;67.14;101508.22;4411548;32;20302;-67
2022/05/07 00:31:12;;;;;;;;;;;;;;;16.96;67.04;101505.59;4412855;32;20255;-68
2022/05/07 00:33:37;;;;;;;;;;;;;;;16.95;66.79;101514.59;4416516;32;20040;-68
2022/05/07 00:36:03;;;;;;;;;;;;;;;16.76;66.92;101510.84;4414508;32;19957;-68
2022/05/07 00:38:28;;;;;;;;;;;;;;;16.77;67.66;101508.78;4413849;32;20031;-68
2022/05/07 00:40:55;;;;;;;;;;;;;;;16.61;67.82;101506.94;4413371;32;20386;-68
2022/05/07 00:43:20;;;;;;;;;;;;;;;16.42;67.65;101518.59;4414737;32;19994;-68
2022/05/07 00:45:46;;;;;;;;;;;;;;;16.05;68.84;101511.78;4413513;32;20356;-68
2022/05/07 00:48:14;;;;;;;;;;;;;;;16.25;67.93;101514.31;4414791;32;20026;-68
2022/05/07 00:53:25;;;;;;;;;;;;;;;16.11;68.49;101511.97;4411848;32;19961;-68
2022/05/07 00:55:51;;;;;;;;;;;;;;;16.05;68.53;101502.44;4413342;32;20015;-68
2022/05/07 00:58:18;;;;;;;;;;;;;;;15.92;69.28;101517.47;4416549;32;20038;-68
2022/05/07 01:00:44;;;;;;;;;;;;;;;15.66;69.88;101518.75;4415203;32;20897;-68
2022/05/07 01:03:10;;;;;;;;;;;;;;;16.01;68.23;101518.81;4414901;32;19972;-68
2022/05/07 01:05:36;;;;;;;;;;;;;;;16.13;67.40;101520.84;4412330;32;19993;-68
2022/05/07 01:08:03;;;;;;;;;;;;;;;15.89;68.41;101526.09;4412950;32;20075;-68
2022/05/07 01:10:28;;;;;;;;;;;;;;;15.69;69.31;101519.88;4411942;32;20320;-68
2022/05/07 01:12:55;;;;;;;;;;;;;;;15.85;68.90;101519.75;4414504;32;20251;-68
2022/05/07 01:15:20;;;;;;;;;;;;;;;15.91;68.48;101526.44;4413612;32;19989;-68
2022/05/07 01:17:46;;;;;;;;;;;;;;;15.48;69.69;101523.38;4413629;32;20000;-68
2022/05/07 01:20:13;;;;;;;;;;;;;;;15.74;68.88;101519.31;4411691;32;19958;-68
2022/05/07 01:22:40;;;;;;;;;;;;;;;15.44;69.37;101526.31;4414047;32;19942;-68
2022/05/07 01:25:06;;;;;;;;;;;;;;;15.43;70.07;101526.78;4412005;32;20762;-68
2022/05/07 01:27:31;;;;;;;;;;;;;;;15.55;68.97;101526.78;4413069;32;20304;-68
2022/05/07 01:29:57;;;;;;;;;;;;;;;15.63;68.46;101531.00;4415475;32;20491;-68
2022/05/07 01:32:23;;;;;;;;;;;;;;;15.60;68.46;101526.25;4418079;32;20454;-68
2022/05/07 01:34:49;;;;;;;;;;;;;;;15.61;67.86;101527.00;4413865;32;19957;-68
2022/05/07 01:37:14;;;;;;;;;;;;;;;15.51;67.84;101525.31;4418122;32;19973;-67
2022/05/07 01:39:40;;;;;;;;;;;;;;;15.50;67.19;101524.50;4416187;32;20021;-68
2022/05/07 01:42:06;;;;;;;;;;;;;;;15.66;66.37;101526.47;4413237;32;20394;-68
2022/05/07 01:44:31;;;;;;;;;;;;;;;15.65;66.76;101524.87;4416428;32;19985;-68
2022/05/07 01:49:44;;;;;;;;;;;;;;;15.52;67.24;101522.03;4416962;32;20233;-68
2022/05/07 01:52:10;;;;;;;;;;;;;;;15.46;67.46;101529.50;4404223;32;19962;-68
2022/05/07 01:54:35;;;;;;;;;;;;;;;15.43;67.61;101521.91;4415386;32;19949;-68
2022/05/07 01:57:01;;;;;;;;;;;;;;;15.43;67.66;101533.25;4414529;32;20055;-68
2022/05/07 01:59:26;;;;;;;;;;;;;;;15.37;67.72;101522.94;4414117;32;20008;-68
2022/05/07 02:01:52;;;;;;;;;;;;;;;15.27;68.23;101529.69;4416422;32;20388;-70
2022/05/07 02:04:18;;;;;;;;;;;;;;;15.18;68.39;101523.88;4416394;32;20475;-70
2022/05/07 02:06:43;;;;;;;;;;;;;;;15.06;68.63;101521.81;4413228;32;20591;-70
2022/05/07 02:09:09;;;;;;;;;;;;;;;15.08;68.37;101527.84;4412886;32;20595;-70
2022/05/07 02:11:35;;;;;;;;;;;;;;;15.04;67.88;101519.44;4415304;32;20410;-70
2022/05/07 02:14:01;;;;;;;;;;;;;;;14.98;68.39;101528.97;4413430;32;20001;-70
2022/05/07 02:16:26;;;;;;;;;;;;;;;14.74;67.17;101522.78;4413084;32;20009;-70
2022/05/07 02:18:52;;;;;;;;;;;;;;;14.88;66.76;101521.59;4419010;32;20004;-70
2022/05/07 02:21:18;;;;;;;;;;;;;;;14.78;66.35;101528.31;4416031;32;20012;-70
2022/05/07 02:23:43;;;;;;;;;;;;;;;14.75;65.98;101521.53;4414182;32;19960;-70
2022/05/07 02:26:09;;;;;;;;;;;;;;;14.75;65.40;101518.69;4413587;32;20005;-70
2022/05/07 02:28:37;;;;;;;;;;;;;;;14.84;64.56;101518.03;4415563;32;21487;-70
2022/05/07 02:31:02;;;;;;;;;;;;;;;14.89;64.76;101521.13;4416304;32;19958;-70
2022/05/07 02:33:28;;;;;;;;;;;;;;;14.74;64.61;101524.81;4415073;32;19953;-70
2022/05/07 02:35:53;;;;;;;;;;;;;;;14.77;65.31;101523.91;4414856;32;20042;-69
2022/05/07 02:38:19;;;;;;;;;;;;;;;14.69;65.58;101528.19;4417113;32;19949;-69
2022/05/07 02:43:30;;;;;;;;;;;;;;;14.65;66.14;101536.00;4413739;32;19989;-69
2022/05/07 02:45:55;;;;;;;;;;;;;;;14.59;65.74;101532.13;4414545;32;20025;-69
2022/05/07 02:48:22;;;;;;;;;;;;;;;14.59;64.60;101544.25;4413231;32;19997;-69
2022/05/07 02:50:47;;;;;;;;;;;;;;;14.58;65.27;101539.03;4413231;32;20006;-69
2022/05/07 02:53:13;;;;;;;;;;;;;;;14.61;65.37;101541.78;4412943;32;20307;-69
2022/05/07 02:55:39;;;;;;;;;;;;;;;14.60;65.47;101547.88;4416761;32;20008;-69
2022/05/07 02:58:06;;;;;;;;;;;;;;;14.59;65.38;101544.25;4414504;32;20405;-69
2022/05/07 03:00:32;;;;;;;;;;;;;;;14.21;66.01;101545.28;4413575;32;20023;-69
2022/05/07 03:02:58;;;;;;;;;;;;;;;14.48;65.81;101549.41;4414441;32;20009;-69
2022/05/07 03:05:24;;;;;;;;;;;;;;;14.50;65.80;101554.63;4414675;32;20322;-69
2022/05/07 03:07:50;;;;;;;;;;;;;;;14.03;66.70;101546.50;4413858;32;19975;-69
2022/05/07 03:10:15;;;;;;;;;;;;;;;14.34;65.76;101560.31;4398999;32;19972;-69
2022/05/07 03:12:41;;;;;;;;;;;;;;;14.25;65.89;101558.13;4412008;32;19982;-69
2022/05/07 03:15:08;;;;;;;;;;;;;;;14.30;66.38;101557.56;4413436;32;20298;-69
2022/05/07 03:17:34;;;;;;;;;;;;;;;14.22;66.82;101569.50;4397857;32;19970;-69
2022/05/07 03:20:00;;;;;;;;;;;;;;;14.22;66.57;101575.16;4416383;32;19993;-69
2022/05/07 03:22:25;;;;;;;;;;;;;;;14.15;67.03;101578.19;4415956;32;20426;-69
2022/05/07 03:24:51;;;;;;;;;;;;;;;14.50;66.11;101575.25;4413460;32;19996;-69
2022/05/07 03:27:17;;;;;;;;;;;;;;;14.05;67.24;101586.50;4414402;32;19996;-69
2022/05/07 03:29:42;;;;;;;;;;;;;;;14.02;67.06;101576.06;4415673;32;20008;-69
2022/05/07 03:32:09;;;;;;;;;;;;;;;13.99;67.29;101574.09;4414329;32;20014;-69
2022/05/07 03:34:35;;;;;;;;;;;;;;;13.99;67.37;101578.97;4414833;32;20024;-69
2022/05/07 03:37:00;;;;;;;;;;;;;;;13.95;67.80;101584.72;4414485;32;19954;-69
2022/05/07 03:39:26;;;;;;;;;;;;;;;13.96;67.52;101586.31;4416629;32;19993;-69
2022/05/07 03:41:51;;;;;;;;;;;;;;;13.94;67.31;101588.00;4413453;32;20008;-69
2022/05/07 03:44:18;;;;;;;;;;;;;;;13.87;67.66;101591.78;4411533;32;19961;-69
2022/05/07 03:46:43;;;;;;;;;;;;;;;13.62;68.96;101600.06;4412818;32;19957;-69
2022/05/07 03:49:09;;;;;;;;;;;;;;;13.32;69.54;101597.50;4412578;32;19958;-69
2022/05/07 03:53:29;;;;;;;;;;;;;;;13.24;69.87;101598.09;4418183;32;20469;-69
2022/05/07 03:54:20;;;;;;;;;;;;;;;13.19;70.35;101607.09;4413982;32;20004;-69
2022/05/07 03:56:45;;;;;;;;;;;;;;;13.52;69.13;101606.75;4401512;32;20016;-69
2022/05/07 03:59:11;;;;;;;;;;;;;;;13.23;70.07;101605.78;4414998;32;20016;-69
2022/05/07 04:01:37;;;;;;;;;;;;;;;13.49;69.28;101604.00;4413857;32;19972;-69
2022/05/07 04:04:02;;;;;;;;;;;;;;;13.16;70.03;101603.09;4413784;32;19992;-69
2022/05/07 04:06:28;;;;;;;;;;;;;;;13.09;70.15;101600.44;4415382;32;19957;-69
2022/05/07 04:08:54;;;;;;;;;;;;;;;13.12;69.86;101607.22;4414422;32;20004;-69
2022/05/07 04:11:19;;;;;;;;;;;;;;;12.91;70.30;101604.78;4414805;32;19961;-69
2022/05/07 04:13:45;;;;;;;;;;;;;;;13.02;69.80;101611.06;4415435;32;20328;-69
2022/05/07 04:16:11;;;;;;;;;;;;;;;13.28;69.36;101618.59;4412547;32;20004;-69
2022/05/07 04:18:37;;;;;;;;;;;;;;;13.39;68.85;101613.53;4414685;32;19950;-69
2022/05/07 04:21:02;;;;;;;;;;;;;;;13.39;68.56;101617.16;4413256;32;20003;-69
2022/05/07 04:23:28;;;;;;;;;;;;;;;13.71;66.96;101627.75;4411854;32;20983;-69
2022/05/07 04:25:54;;;;;;;;;;;;;;;14.16;65.31;101622.22;4413231;32;19969;-69
2022/05/07 04:28:19;;;;;;;;;;;;;;;14.25;65.01;101619.59;4416155;32;19992;-69
2022/05/07 04:30:45;;;;;;;;;;;;;;;14.34;64.99;101629.09;4412893;32;19997;-69
2022/05/07 04:33:11;;;;;;;;;;;;;;;14.34;64.85;101625.44;4415396;32;20449;-69
2022/05/07 04:35:36;;;;;;;;;;;;;;;14.37;64.78;101631.03;4415737;32;19962;-69
2022/05/07 04:38:02;;;;;;;;;;;;;;;14.25;64.74;101631.75;4413735;32;19993;-69
2022/05/07 04:40:29;;;;;;;;;;;;;;;14.34;64.66;101640.41;4413054;32;20003;-69
2022/05/07 04:42:55;;;;;;;;;;;;;;;14.27;64.89;101629.28;4414919;32;19971;-69
2022/05/07 04:45:21;;;;;;;;;;;;;;;14.36;64.70;101637.13;4412980;32;19957;-69
2022/05/07 04:47:46;;;;;;;;;;;;;;;14.39;64.77;101642.69;4412092;32;19961;-69
2022/05/07 04:50:13;;;;;;;;;;;;;;;14.44;64.88;101649.84;4416135;32;20015;-69
2022/05/07 04:52:38;;;;;;;;;;;;;;;14.40;65.33;101646.34;4412304;32;19961;-69
2022/05/07 04:55:05;;;;;;;;;;;;;;;13.76;67.28;101650.69;4414513;32;20016;-69
2022/05/07 04:57:30;;;;;;;;;;;;;;;13.62;67.85;101647.34;4411523;32;20279;-69
2022/05/07 04:59:59;;;;;;;;;;;;;;;13.61;67.77;101657.88;4415537;32;19990;-69
2022/05/07 05:02:25;;;;;;;;;;;;;;;13.62;67.44;101665.13;4413466;32;19969;-69
2022/05/07 05:04:51;;;;;;;;;;;;;;;13.68;67.24;101657.72;4414290;32;20350;-69
2022/05/07 05:07:16;;;;;;;;;;;;;;;13.70;67.37;101666.56;4415963;32;20339;-69
2022/05/07 05:09:42;;;;;;;;;;;;;;;13.71;66.96;101675.84;4416153;32;20017;-69
2022/05/07 05:12:09;;;;;;;;;;;;;;;14.06;65.86;101673.00;4415690;32;20005;-69
2022/05/07 05:15:06;;;;;;;;;;;;;;;13.86;66.71;101680.75;4415968;32;19997;-69
2022/05/07 05:17:19;;;;;;;;;;;;;;;13.90;66.33;101683.50;4417738;32;20075;-69
2022/05/07 05:19:45;;;;;;;;;;;;;;;13.64;67.32;101688.13;4417704;32;19958;-69
2022/05/07 05:22:12;;;;;;;;;;;;;;;13.34;68.90;101691.16;4416795;32;20064;-69
2022/05/07 05:24:38;;;;;;;;;;;;;;;13.74;67.79;101691.94;4416862;32;19949;-69
2022/05/07 05:27:04;;;;;;;;;;;;;;;13.52;68.08;101702.13;4419634;32;19995;-69
2022/05/07 05:29:30;;;;;;;;;;;;;;;13.68;67.98;101705.00;4416528;32;19953;-69
2022/05/07 05:31:56;;;;;;;;;;;;;;;13.51;68.34;101695.69;4412157;32;20011;-69
2022/05/07 05:34:22;;;;;;;;;;;;;;;14.36;65.51;101708.72;4418636;32;20001;-69
2022/05/07 05:36:47;;;;;;;;;;;;;;;14.18;65.70;101707.53;4415053;32;20302;-69
2022/05/07 05:39:13;;;;;;;;;;;;;;;14.29;65.46;101710.94;4416406;32;19973;-69
2022/05/07 05:41:41;;;;;;;;;;;;;;;14.41;65.20;101708.19;4415244;32;19962;-69
2022/05/07 05:44:07;;;;;;;;;;;;;;;13.92;66.75;101714.97;4403397;32;20013;-69
2022/05/07 05:46:32;;;;;;;;;;;;;;;14.01;66.75;101718.81;4417666;32;19993;-69
2022/05/07 05:48:58;;;;;;;;;;;;;;;13.89;67.35;101727.19;4416541;32;19997;-69
2022/05/07 05:51:23;;;;;;;;;;;;;;;14.14;66.31;101726.62;4414225;32;20300;-69
2022/05/07 05:53:49;;;;;;;;;;;;;;;14.38;65.78;101719.59;4416603;32;19966;-69
2022/05/07 05:56:14;;;;;;;;;;;;;;;14.54;64.92;101722.47;4417257;32;19996;-69
2022/05/07 05:58:40;;;;;;;;;;;;;;;15.08;62.63;101729.13;4417098;32;20009;-69
2022/05/07 06:01:07;;;;;;;;;;;;;;;14.63;62.81;101736.81;4418617;32;19953;-69
2022/05/07 06:03:33;;;;;;;;;;;;;;;14.75;62.26;101738.91;4415624;32;19994;-69
2022/05/07 06:06:00;;;;;;;;;;;;;;;14.89;60.45;101744.22;4419943;32;20206;-69
2022/05/07 06:08:26;;;;;;;;;;;;;;;15.10;58.87;101746.50;4415461;32;19973;-69
2022/05/07 06:10:52;;;;;;;;;;;;;;;15.09;58.41;101750.56;4411901;32;20394;-69
2022/05/07 06:13:18;;;;;;;;;;;;;;;15.21;57.44;101755.50;4413986;32;19997;-69
2022/05/07 06:15:45;;;;;;;;;;;;;;;15.26;57.25;101757.81;4417059;32;20143;-69
2022/05/07 06:18:11;;;;;;;;;;;;;;;15.63;56.10;101762.88;4413916;32;19996;-69
2022/05/07 06:20:38;;;;;;;;;;;;;;;15.85;55.02;101755.34;4415167;32;20008;-69
2022/05/07 06:23:03;;;;;;;;;;;;;;;15.79;55.42;101757.94;4413536;32;19989;-69
2022/05/07 06:28:14;;;;;;;;;;;;;;;16.17;54.23;101760.84;4414503;32;20399;-69
2022/05/07 06:30:39;;;;;;;;;;;;;;;16.39;53.87;101766.66;4416906;32;19972;-69
2022/05/07 06:33:05;;;;;;;;;;;;;;;16.51;53.94;101772.37;4412286;32;19993;-70
2022/05/07 06:35:30;;;;;;;;;;;;;;;16.78;53.26;101775.53;4416449;32;20409;-70
2022/05/07 06:37:56;;;;;;;;;;;;;;;16.27;54.69;101773.94;4411753;32;20044;-70
2022/05/07 06:40:21;;;;;;;;;;;;;;;16.32;54.89;101784.72;4414402;32;19986;-70
2022/05/07 06:42:48;;;;;;;;;;;;;;;15.98;54.46;101781.72;4415569;32;20570;-70
2022/05/07 06:45:13;;;;;;;;;;;;;;;16.33;54.44;101792.00;4416613;32;20074;-70
2022/05/07 06:47:41;;;;;;;;;;;;;;;16.41;53.52;101799.06;4415268;32;19996;-70
2022/05/07 06:50:07;;;;;;;;;;;;;;;16.51;54.44;101791.50;4404415;32;19997;-70
2022/05/07 06:52:41;;;;;;;;;;;;;;;16.69;54.10;101789.66;4414284;32;20005;-70
2022/05/07 06:55:07;;;;;;;;;;;;;;;16.61;54.21;101796.84;4417468;32;20390;-70
2022/05/07 06:57:33;;;;;;;;;;;;;;;16.40;54.34;101794.62;4415366;32;20050;-70
2022/05/07 06:59:59;;;;;;;;;;;;;;;16.32;54.55;101792.47;4416630;32;20306;-69
2022/05/07 07:02:25;;;;;;;;;;;;;;;16.65;54.31;101800.34;4414232;32;19994;-69
2022/05/07 07:04:50;;;;;;;;;;;;;;;16.56;54.03;101799.44;4414725;32;20027;-69
2022/05/07 07:07:24;;;;;;;;;;;;;;;16.62;54.33;101803.28;4415729;32;20008;-70
2022/05/07 07:09:50;;;;;;;;;;;;;;;16.67;53.90;101794.22;4414328;32;20311;-70
2022/05/07 07:12:15;;;;;;;;;;;;;;;16.66;52.90;101793.41;4412782;32;19989;-70
2022/05/07 07:14:41;;;;;;;;;;;;;;;16.87;53.43;101789.87;4417088;32;19949;-70
2022/05/07 07:17:07;;;;;;;;;;;;;;;16.88;52.65;101790.66;4412262;32;19955;-69
2022/05/07 07:19:34;;;;;;;;;;;;;;;16.93;53.76;101792.91;4416611;32;20327;-69
2022/05/07 07:22:00;;;;;;;;;;;;;;;17.04;53.12;101784.84;4415369;32;19957;-69
2022/05/07 07:24:26;;;;;;;;;;;;;;;16.99;53.11;101791.91;4422566;32;19953;-68
2022/05/07 07:26:52;;;;;;;;;;;;;;;17.03;53.63;101801.09;4414658;32;20021;-68
2022/05/07 07:29:18;;;;;;;;;;;;;;;17.08;53.73;101800.53;4416060;32;19991;-69
2022/05/07 07:31:43;;;;;;;;;;;;;;;17.16;53.29;101799.06;4415610;32;20043;-69
2022/05/07 07:34:10;;;;;;;;;;;;;;;17.26;54.07;101808.47;4414634;32;20008;-69
2022/05/07 07:36:35;;;;;;;;;;;;;;;17.41;53.18;101810.34;4419798;32;19965;-69
2022/05/07 07:39:06;;;;;;;;;;;;;;;17.71;52.78;101815.38;4414410;32;20225;-68
2022/05/07 07:41:34;;;;;;;;;;;;;;;17.80;52.83;101815.44;4413986;32;19996;-69
2022/05/07 07:43:59;;;;;;;;;;;;;;;17.73;51.79;101810.03;4415793;32;19995;-69
2022/05/07 07:49:10;;;;;;;;;;;;;;;17.90;51.47;101816.34;4415207;32;19970;-69
2022/05/07 07:51:36;;;;;;;;;;;;;;;18.08;52.45;101827.06;4416231;32;19990;-69
2022/05/07 07:54:01;;;;;;;;;;;;;;;18.12;51.60;101822.00;4415168;32;20047;-68
2022/05/07 07:56:27;;;;;;;;;;;;;;;18.30;51.45;101824.97;4414087;32;20460;-70
2022/05/07 07:58:53;;;;;;;;;;;;;;;18.23;50.90;101820.37;4416645;32;19985;-70
2022/05/07 08:01:18;;;;;;;;;;;;;;;18.34;51.24;101822.78;4415535;32;20031;-70
2022/05/07 08:03:44;;;;;;;;;;;;;;;18.36;50.06;101821.06;4412632;32;21234;-70
2022/05/07 08:06:10;;;;;;;;;;;;;;;18.23;50.96;101830.97;4412239;32;20006;-70
2022/05/07 08:11:55;;;;;;;;;;;;;;;18.42;51.68;101827.00;4414078;32;20193;-68
2022/05/07 08:14:07;;;;;;;;;;;;;;;18.66;50.84;101833.78;4416732;32;19968;-71
2022/05/07 08:16:33;;;;;;;;;;;;;;;18.49;51.02;101830.34;4414375;32;20433;-70
2022/05/07 08:19:00;;;;;;;;;;;;;;;18.41;49.90;101829.03;4414295;32;20007;-71
2022/05/07 08:21:28;;;;;;;;;;;;;;;18.61;50.69;101834.38;4412831;32;19954;-71
2022/05/07 08:23:54;;;;;;;;;;;;;;;18.77;49.98;101826.37;4415319;32;19957;-69
2022/05/07 08:26:19;;;;;;;;;;;;;;;18.79;49.90;101831.59;4413094;32;19969;-70
2022/05/07 08:28:45;;;;;;;;;;;;;;;18.73;49.53;101833.47;4414158;32;19957;-71
2022/05/07 08:31:11;;;;;;;;;;;;;;;18.67;50.77;101832.50;4413393;32;20319;-71
2022/05/07 08:33:40;;;;;;;;;;;;;;;18.82;50.50;101840.03;4412311;32;20386;-70
2022/05/07 08:36:06;;;;;;;;;;;;;;;19.05;50.39;101833.75;4413439;32;20009;-70
2022/05/07 08:38:32;;;;;;;;;;;;;;;19.24;49.57;101838.25;4414507;32;19981;-70
2022/05/07 08:40:59;;;;;;;;;;;;;;;19.49;48.66;101834.38;4416253;32;19996;-69
2022/05/07 08:43:24;;;;;;;;;;;;;;;19.85;48.33;101833.59;4419396;32;19988;-68
2022/05/07 08:45:50;;;;;;;;;;;;;;;19.47;48.13;101834.03;4416837;32;20381;-68
2022/05/07 08:48:16;;;;;;;;;;;;;;;20.75;46.61;101842.81;4416580;32;19976;-69
2022/05/07 08:50:41;;;;;;;;;;;;;;;20.94;45.54;101844.34;4419838;32;20011;-69
2022/05/07 08:53:07;;;;;;;;;;;;;;;20.68;46.90;101842.34;4401642;32;19967;-69
2022/05/07 08:55:33;;;;;;;;;;;;;;;21.00;45.99;101844.47;4416515;32;20371;-70
2022/05/07 08:57:59;;;;;;;;;;;;;;;21.24;45.56;101831.78;4404892;32;19967;-70
2022/05/07 09:00:25;;;;;;;;;;;;;;;21.69;43.46;101834.31;4416748;32;19972;-70
2022/05/07 09:02:52;;;;;;;;;;;;;;;22.26;43.01;101839.87;4416688;32;20049;-69
2022/05/07 09:05:19;;;;;;;;;;;;;;;22.94;41.63;101844.22;4416539;32;20607;-70
2022/05/07 09:10:29;;;;;;;;;;;;;;;23.32;41.07;101847.69;3950326;32;15777620;-71
2022/05/07 09:12:58;;;;;;;;;;;;;;;23.32;41.07;101847.69;4429928;32;20371;-71
2022/05/07 09:15:24;;;;;;;;;;;;;;;22.81;41.12;101841.69;4429150;32;19957;-71
2022/05/07 09:17:50;;;;;;;;;;;;;;;23.07;41.16;101845.47;4429499;32;19999;-71
2022/05/07 09:20:18;;;;;;;;;;;;;;;22.93;41.80;101845.50;4427451;32;19949;-71
2022/05/07 09:22:53;;;;;;;;;;;;;;;23.41;40.38;101847.56;4427657;32;20361;-71
2022/05/07 09:25:21;;;;;;;;;;;;;;;23.49;40.58;101854.47;4430714;32;20992;-71
2022/05/07 09:27:51;;;;;;;;;;;;;;;23.89;39.60;101850.00;4414756;32;19972;-71
2022/05/07 09:30:22;;;;;;;;;;;;;;;24.31;39.07;101850.25;4433551;32;20034;-71
2022/05/07 09:32:49;;;;;;;;;;;;;;;24.50;38.63;101852.28;4427507;32;20379;-71
2022/05/07 09:38:01;;;;;;;;;;;;;;;24.87;38.04;101861.00;4416050;32;19997;-71
2022/05/07 09:40:27;;;;;;;;;;;;;;;25.33;37.02;101871.06;4428421;32;19960;-71
2022/05/07 09:43:01;;;;;;;;;;;;;;;25.05;36.52;101866.38;4426140;32;20425;-71
2022/05/07 09:45:28;;;;;;;;;;;;;;;25.83;36.34;101873.41;4430158;32;19973;-71
2022/05/07 09:47:54;;;;;;;;;;;;;;;26.42;34.92;101886.47;4427380;32;20007;-71
2022/05/07 09:50:20;;;;;;;;;;;;;;;26.65;34.63;101882.34;4425001;32;20335;-71
2022/05/07 09:58:18;;;;;;;;;;;;;;;25.80;34.83;101886.00;4427405;32;20279;-71
2022/05/07 10:01:04;;;;;;;;;;;;;;;25.91;34.76;101868.72;4432132;32;20574;-71
2022/05/07 10:03:49;;;;;;;;;;;;;;;26.03;35.11;101884.78;4426739;32;19965;-71
2022/05/07 10:09:10;;;;;;;;;;;;;;;25.48;35.56;101896.03;3953995;32;15722532;-70
2022/05/07 10:11:36;;;;;;;;;;;;;;;25.73;35.35;101909.53;4430230;32;20017;-70
2022/05/07 10:14:02;;;;;;;;;;;;;;;25.59;35.44;101902.66;4432089;32;19993;-70
2022/05/07 10:16:29;;;;;;;;;;;;;;;26.05;34.77;101897.38;4429065;32;20010;-70
2022/05/07 10:18:56;;;;;;;;;;;;;;;26.08;34.71;101910.00;4432286;32;20001;-70
2022/05/07 10:21:21;;;;;;;;;;;;;;;25.94;34.84;101908.06;4427336;32;20013;-70
2022/05/07 10:23:49;;;;;;;;;;;;;;;26.39;34.13;101907.75;4430389;32;20018;-70
2022/05/07 10:26:15;;;;;;;;;;;;;;;26.57;33.32;101923.78;4427260;32;20393;-70
2022/05/07 10:28:42;;;;;;;;;;;;;;;26.71;32.92;101911.22;4433890;32;19980;-70
2022/05/07 10:31:15;;;;;;;;;;;;;;;27.56;31.88;101915.16;4430233;32;20360;-70
2022/05/07 10:33:41;;;;;;;;;;;;;;;27.21;32.24;101914.91;4430201;32;19957;-71
2022/05/07 10:36:07;;;;;;;;;;;;;;;27.61;31.66;101922.25;4430926;32;19980;-71
2022/05/07 10:38:33;;;;;;;;;;;;;;;27.59;31.62;101930.66;4432505;32;20012;-71
2022/05/07 10:41:01;;;;;;;;;;;;;;;27.64;31.47;101930.62;4411921;32;20326;-71
2022/05/07 10:46:08;;;;;;;;;;;;;;;27.57;31.55;101939.06;3951535;32;15722545;-71
2022/05/07 10:48:52;;;;;;;;;;;;;;;27.57;31.55;101939.06;4429375;32;20027;-71
2022/05/07 10:51:18;;;;;;;;;;;;;;;27.30;31.88;101934.91;4429017;32;19997;-70
2022/05/07 10:53:44;;;;;;;;;;;;;;;27.31;31.90;101935.69;4429634;32;20301;-71
2022/05/07 10:56:11;;;;;;;;;;;;;;;26.34;33.66;101936.56;4416437;32;20119;-70
2022/05/07 10:58:37;;;;;;;;;;;;;;;25.39;34.49;101925.84;4430727;32;20041;-70
2022/05/07 11:01:03;;;;;;;;;;;;;;;25.18;35.09;101913.62;4430970;32;19950;-70
2022/05/07 11:03:29;;;;;;;;;;;;;;;25.08;35.47;101925.84;4413919;32;19957;-71
2022/05/07 11:06:02;;;;;;;;;;;;;;;25.17;35.71;101934.31;4428088;32;20354;-70
2022/05/07 11:08:30;;;;;;;;;;;;;;;26.07;34.12;101946.72;4431570;32;20019;-70
2022/05/07 11:11:04;;;;;;;;;;;;;;;25.59;34.45;101948.00;4430622;32;19967;-71
2022/05/07 11:13:29;;;;;;;;;;;;;;;26.15;33.79;101949.91;4416339;32;20020;-71
2022/05/07 11:16:02;;;;;;;;;;;;;;;25.92;34.07;101942.44;4430099;32;20467;-71
2022/05/07 11:18:31;;;;;;;;;;;;;;;25.94;33.88;101945.56;4430478;32;20380;-71
2022/05/07 11:21:01;;;;;;;;;;;;;;;26.12;33.93;101942.28;4430941;32;19962;-71
2022/05/07 11:23:27;;;;;;;;;;;;;;;26.17;33.75;101942.28;4430417;32;19981;-71
2022/05/07 11:25:52;;;;;;;;;;;;;;;26.88;32.40;101950.38;4430703;32;20010;-71
2022/05/07 11:28:18;;;;;;;;;;;;;;;26.58;33.34;101945.56;4430738;32;19964;-71
2022/05/07 11:30:51;;;;;;;;;;;;;;;26.82;33.13;101948.81;4428246;32;19953;-71
2022/05/07 11:33:22;;;;;;;;;;;;;;;27.09;32.41;101939.38;4427304;32;19997;-71
2022/05/07 11:35:58;;;;;;;;;;;;;;;26.78;32.40;101946.16;4430906;32;20044;-71
2022/05/07 11:38:24;;;;;;;;;;;;;;;26.28;33.07;101947.31;4428207;32;19986;-71
2022/05/07 11:40:52;;;;;;;;;;;;;;;25.61;34.60;101951.16;4431592;32;20044;-71
2022/05/07 11:46:06;;;;;;;;;;;;;;;27.79;30.65;101956.38;4429546;32;19965;-71
2022/05/07 11:48:32;;;;;;;;;;;;;;;27.99;30.37;101958.97;4429448;32;20008;-71
2022/05/07 11:50:59;;;;;;;;;;;;;;;28.78;29.15;101959.63;4431290;32;20408;-72
2022/05/07 11:53:27;;;;;;;;;;;;;;;28.74;29.33;101967.03;4428334;32;19973;-71
2022/05/07 11:55:52;;;;;;;;;;;;;;;29.05;28.83;101974.50;4425637;32;20404;-71
2022/05/07 11:58:22;;;;;;;;;;;;;;;29.12;28.17;101968.13;4420958;32;19961;-72
2022/05/07 12:00:51;;;;;;;;;;;;;;;29.44;28.09;101966.22;4421797;32;19973;-71
2022/05/07 12:03:17;;;;;;;;;;;;;;;29.64;27.60;101966.63;4418862;32;19965;-71
2022/05/07 12:08:19;;;;;;;;;;;;;;;29.28;28.66;101967.97;3952827;32;15722542;-72
2022/05/07 12:10:46;;;;;;;;;;;;;;;29.28;28.66;101967.97;4429394;32;19969;-72
2022/05/07 12:13:13;;;;;;;;;;;;;;;29.07;28.72;101963.13;4424843;32;20551;-71
2022/05/07 12:18:24;;;;;;;;;;;;;;;28.19;29.73;101959.41;4428691;32;19984;-72
2022/05/07 12:20:51;;;;;;;;;;;;;;;28.65;28.63;101971.06;4428852;32;20311;-71
2022/05/07 12:31:33;;;;;;;;;;;;;;;28.21;28.59;101970.47;4430666;32;19997;-71
2022/05/07 12:33:59;;;;;;;;;;;;;;;28.03;29.08;101968.94;4426938;32;20011;-71
2022/05/07 12:36:26;;;;;;;;;;;;;;;28.15;29.58;101969.69;4430673;32;20035;-71
2022/05/07 12:38:52;;;;;;;;;;;;;;;28.62;28.31;101966.31;4429601;32;20417;-71
2022/05/07 12:41:18;;;;;;;;;;;;;;;28.77;28.24;101971.75;4429851;32;20001;-71
2022/05/07 12:43:44;;;;;;;;;;;;;;;28.80;28.77;101962.00;4426175;32;19972;-71
2022/05/07 12:46:09;;;;;;;;;;;;;;;29.22;28.03;101967.25;4425110;32;19983;-71
2022/05/07 12:48:34;;;;;;;;;;;;;;;29.16;28.32;101966.50;4429601;32;19993;-71
2022/05/07 12:51:00;;;;;;;;;;;;;;;28.94;28.32;101958.75;4426788;32;19992;-70
2022/05/07 12:53:26;;;;;;;;;;;;;;;29.10;28.26;101959.16;4427801;32;20524;-70
2022/05/07 12:55:51;;;;;;;;;;;;;;;28.78;28.70;101971.22;4428936;32;19958;-70
2022/05/07 12:58:16;;;;;;;;;;;;;;;28.71;29.12;101960.22;4429920;32;19952;-70
2022/05/07 13:00:42;;;;;;;;;;;;;;;28.84;29.07;101965.41;4430025;32;20028;-70
2022/05/07 13:03:08;;;;;;;;;;;;;;;28.92;29.06;101955.59;4425732;32;20134;-70
2022/05/07 13:05:35;;;;;;;;;;;;;;;29.15;28.95;101961.25;4428153;32;20007;-70
2022/05/07 13:08:01;;;;;;;;;;;;;;;28.55;29.60;101957.41;4430448;32;19954;-70
2022/05/07 13:10:29;;;;;;;;;;;;;;;28.94;29.41;101964.53;4425160;32;19949;-70
2022/05/07 13:12:56;;;;;;;;;;;;;;;28.46;30.23;101958.53;4429284;32;20059;-70
2022/05/07 13:15:21;;;;;;;;;;;;;;;29.36;29.30;101971.06;4427949;32;20011;-70
2022/05/07 13:17:48;;;;;;;;;;;;;;;29.69;28.86;101965.75;4428244;32;19981;-70
2022/05/07 13:20:13;;;;;;;;;;;;;;;29.80;28.17;101974.34;4416453;32;19957;-71
2022/05/07 13:22:39;;;;;;;;;;;;;;;29.23;28.97;101968.03;4416426;32;19962;-70
2022/05/07 13:25:05;;;;;;;;;;;;;;;28.91;29.18;101967.72;4418442;32;20013;-70